createdAt,value
2022-08-25T00:00:10.306Z,17.68
2022-08-25T00:02:37.733Z,17.75
2022-08-25T00:05:05.674Z,17.83
2022-08-25T00:07:33.607Z,17.86
2022-08-25T00:10:00.321Z,17.90
2022-08-25T00:12:26.848Z,17.92
2022-08-25T00:14:53.359Z,17.95
2022-08-25T00:17:19.845Z,17.87
2022-08-25T00:19:46.335Z,17.74
2022-08-25T00:22:12.930Z,17.62
2022-08-25T00:24:39.567Z,17.55
2022-08-25T00:27:06.371Z,17.54
2022-08-25T00:29:34.017Z,17.51
2022-08-25T00:32:01.399Z,17.55
2022-08-25T00:34:34.448Z,17.55
2022-08-25T00:37:03.689Z,17.57
2022-08-25T00:39:30.489Z,17.54
2022-08-25T00:41:57.925Z,17.53
2022-08-25T00:44:28.559Z,17.58
2022-08-25T00:47:00.941Z,17.61
2022-08-25T00:49:54.147Z,17.46
2022-08-25T00:52:27.093Z,17.42
2022-08-25T00:55:08.140Z,17.39
2022-08-25T00:57:43.198Z,17.26
2022-08-25T01:00:22.542Z,17.22
2022-08-25T01:02:49.749Z,17.19
2022-08-25T01:05:19.223Z,17.16
2022-08-25T01:07:46.676Z,17.10
2022-08-25T01:10:13.739Z,17.07
2022-08-25T01:12:41.312Z,17.08
2022-08-25T01:15:11.763Z,17.05
2022-08-25T01:17:54.040Z,17.00
2022-08-25T01:20:29.470Z,16.99
2022-08-25T01:22:57.650Z,16.97
2022-08-25T01:25:57.118Z,16.98
2022-08-25T01:28:23.703Z,16.96
2022-08-25T01:30:50.574Z,16.98
2022-08-25T01:33:17.261Z,17.03
2022-08-25T01:35:44.095Z,17.01
2022-08-25T01:38:11.772Z,16.95
2022-08-25T01:40:40.171Z,16.85
2022-08-25T01:43:14.729Z,16.88
2022-08-25T01:45:47.609Z,16.89
2022-08-25T01:48:16.922Z,16.89
2022-08-25T01:50:44.086Z,16.83
2022-08-25T01:53:27.718Z,16.77
2022-08-25T01:56:05.563Z,16.63
2022-08-25T01:58:41.680Z,16.59
2022-08-25T02:01:15.727Z,16.61
2022-08-25T02:03:44.780Z,16.58
2022-08-25T02:06:17.836Z,16.54
2022-08-25T02:08:44.711Z,16.49
2022-08-25T02:11:14.213Z,16.54
2022-08-25T02:13:42.202Z,16.61
2022-08-25T02:16:14.716Z,16.55
2022-08-25T02:18:41.296Z,16.43
2022-08-25T02:21:07.778Z,16.34
2022-08-25T02:23:34.274Z,16.28
2022-08-25T02:26:00.771Z,16.26
2022-08-25T02:28:27.279Z,16.24
2022-08-25T02:30:58.563Z,16.19
2022-08-25T02:33:28.080Z,16.09
2022-08-25T02:35:59.284Z,16.03
2022-08-25T02:38:27.870Z,16.03
2022-08-25T02:40:56.987Z,16.02
2022-08-25T02:43:24.824Z,16.02
2022-08-25T02:45:53.254Z,15.97
2022-08-25T02:48:19.886Z,15.89
2022-08-25T02:50:48.779Z,15.84
2022-08-25T02:53:15.319Z,15.88
2022-08-25T02:55:41.833Z,15.92
2022-08-25T02:58:09.051Z,16.02
2022-08-25T03:00:36.871Z,16.05
2022-08-25T03:03:05.923Z,16.09
2022-08-25T03:05:33.695Z,16.12
2022-08-25T03:08:00.623Z,16.04
2022-08-25T03:10:27.306Z,15.96
2022-08-25T03:12:53.912Z,15.90
2022-08-25T03:15:20.737Z,15.87
2022-08-25T03:17:51.043Z,15.84
2022-08-25T03:20:19.486Z,15.84
2022-08-25T03:22:46.044Z,15.87
2022-08-25T03:25:31.727Z,15.89
2022-08-25T03:27:58.339Z,15.81
2022-08-25T03:30:26.121Z,15.87
2022-08-25T03:32:53.153Z,15.91
2022-08-25T03:35:19.911Z,15.97
2022-08-25T03:37:46.863Z,15.95
2022-08-25T03:40:17.438Z,15.94
2022-08-25T03:42:46.055Z,15.91
2022-08-25T03:45:16.430Z,15.79
2022-08-25T03:47:48.033Z,15.60
2022-08-25T03:50:17.720Z,15.54
2022-08-25T03:52:45.275Z,15.46
2022-08-25T03:55:14.808Z,15.48
2022-08-25T03:57:41.575Z,15.46
2022-08-25T04:00:12.135Z,15.45
2022-08-25T04:02:40.174Z,15.44
2022-08-25T04:05:08.674Z,15.40
2022-08-25T04:07:35.459Z,15.38
2022-08-25T04:10:02.145Z,15.38
2022-08-25T04:12:28.655Z,15.35
2022-08-25T04:14:55.890Z,15.29
2022-08-25T04:17:22.839Z,15.18
2022-08-25T04:19:50.009Z,15.16
2022-08-25T04:22:17.269Z,15.28
2022-08-25T04:24:43.866Z,15.31
2022-08-25T04:27:10.427Z,15.30
2022-08-25T04:29:36.935Z,15.27
2022-08-25T04:32:03.955Z,15.34
2022-08-25T04:34:31.637Z,15.33
2022-08-25T04:37:05.381Z,15.30
2022-08-25T04:39:32.325Z,15.33
2022-08-25T04:42:00.361Z,15.30
2022-08-25T04:44:27.203Z,15.20
2022-08-25T04:46:53.919Z,15.12
2022-08-25T04:49:20.466Z,15.10
2022-08-25T04:51:47.799Z,15.09
2022-08-25T04:54:17.080Z,15.11
2022-08-25T04:56:44.497Z,15.12
2022-08-25T04:59:15.695Z,15.16
2022-08-25T05:01:46.163Z,15.21
2022-08-25T05:04:28.534Z,15.21
2022-08-25T05:06:56.885Z,15.12
2022-08-25T05:09:23.667Z,15.17
2022-08-25T05:11:51.807Z,15.22
2022-08-25T05:14:21.619Z,15.16
2022-08-25T05:16:52.308Z,15.11
2022-08-25T05:19:19.386Z,15.22
2022-08-25T05:21:45.994Z,15.20
2022-08-25T05:24:12.511Z,15.24
2022-08-25T05:26:39.665Z,15.34
2022-08-25T05:29:06.895Z,15.35
2022-08-25T05:31:36.407Z,15.38
2022-08-25T05:34:08.018Z,15.48
2022-08-25T05:36:35.379Z,15.54
2022-08-25T05:39:02.643Z,15.51
2022-08-25T05:41:31.364Z,15.56
2022-08-25T05:43:58.176Z,15.66
2022-08-25T05:46:25.230Z,15.68
2022-08-25T05:48:52.138Z,15.67
2022-08-25T05:51:19.874Z,15.66
2022-08-25T05:53:50.092Z,15.67
2022-08-25T05:56:17.218Z,15.67
2022-08-25T05:58:44.632Z,15.71
2022-08-25T06:01:40.060Z,15.71
2022-08-25T06:04:10.055Z,15.71
2022-08-25T06:06:36.634Z,15.77
2022-08-25T06:09:05.136Z,15.79
2022-08-25T06:11:31.688Z,15.87
2022-08-25T06:13:58.263Z,16.02
2022-08-25T06:16:24.873Z,16.14
2022-08-25T06:18:51.411Z,16.16
2022-08-25T06:21:18.589Z,16.21
2022-08-25T06:23:45.189Z,16.31
2022-08-25T06:26:20.802Z,16.44
2022-08-25T06:28:50.771Z,16.57
2022-08-25T06:31:18.286Z,16.66
2022-08-25T06:33:45.355Z,16.72
2022-08-25T06:36:12.691Z,16.83
2022-08-25T06:38:39.270Z,16.88
2022-08-25T06:41:07.688Z,16.96
2022-08-25T06:43:34.963Z,17.11
2022-08-25T06:46:19.132Z,17.24
2022-08-25T06:48:45.822Z,17.36
2022-08-25T06:51:15.334Z,17.45
2022-08-25T06:53:44.591Z,17.58
2022-08-25T06:56:12.187Z,17.71
2022-08-25T06:58:39.758Z,17.86
2022-08-25T07:01:22.826Z,17.98
2022-08-25T07:03:59.699Z,18.10
2022-08-25T07:06:29.307Z,18.25
2022-08-25T07:08:55.832Z,18.39
2022-08-25T07:11:22.555Z,18.47
2022-08-25T07:13:50.759Z,18.60
2022-08-25T07:16:20.419Z,18.73
2022-08-25T07:18:48.855Z,18.86
2022-08-25T07:21:17.384Z,18.95
2022-08-25T07:23:44.620Z,19.03
2022-08-25T07:26:36.720Z,19.20
2022-08-25T07:29:31.937Z,19.36
2022-08-25T07:32:01.388Z,19.53
2022-08-25T07:34:52.619Z,19.60
2022-08-25T07:40:24.415Z,19.76
2022-08-25T07:42:55.076Z,19.89
2022-08-25T07:45:30.167Z,19.97
2022-08-25T07:48:06.027Z,20.04
2022-08-25T07:50:35.477Z,20.14
2022-08-25T07:53:02.198Z,20.18
2022-08-25T07:55:30.415Z,20.27
2022-08-25T07:57:57.922Z,20.32
2022-08-25T08:00:32.057Z,20.40
2022-08-25T08:03:00.831Z,20.55
2022-08-25T08:05:30.514Z,20.68
2022-08-25T08:07:57.787Z,20.77
2022-08-25T08:10:47.808Z,20.84
2022-08-25T08:13:16.478Z,20.95
2022-08-25T08:15:45.587Z,20.95
2022-08-25T08:18:12.160Z,21.09
2022-08-25T08:20:42.953Z,21.19
2022-08-25T08:23:11.398Z,21.31
2022-08-25T08:25:38.098Z,21.36
2022-08-25T08:28:04.647Z,21.37
2022-08-25T08:30:34.248Z,21.47
2022-08-25T08:33:11.322Z,21.56
2022-08-25T08:35:39.704Z,21.64
2022-08-25T08:38:14.552Z,21.66
2022-08-25T08:41:27.838Z,21.72
2022-08-25T08:44:10.769Z,21.81
2022-08-25T08:46:57.741Z,21.94
2022-08-25T08:50:07.701Z,22.04
2022-08-25T08:52:44.510Z,22.14
2022-08-25T08:55:32.182Z,22.21
2022-08-25T08:58:05.831Z,22.30
2022-08-25T09:00:40.422Z,22.44
2022-08-25T09:03:16.950Z,22.38
2022-08-25T09:05:52.703Z,22.38
2022-08-25T09:08:20.526Z,22.46
2022-08-25T09:11:22.685Z,22.50
2022-08-25T09:14:38.448Z,22.63
2022-08-25T09:17:41.200Z,22.63
2022-08-25T09:20:32.063Z,22.75
2022-08-25T09:23:29.968Z,22.96
2022-08-25T09:26:28.328Z,23.10
2022-08-25T09:29:06.322Z,23.18
2022-08-25T09:31:43.291Z,23.24
2022-08-25T09:34:20.692Z,23.32
2022-08-25T09:36:50.676Z,23.46
2022-08-25T09:39:17.915Z,23.51
2022-08-25T09:41:52.149Z,23.57
2022-08-25T09:44:31.396Z,23.59
2022-08-25T09:47:15.232Z,23.66
2022-08-25T09:49:56.278Z,23.76
2022-08-25T09:52:28.586Z,23.78
2022-08-25T09:55:00.182Z,23.89
2022-08-25T09:57:33.838Z,23.93
2022-08-25T10:00:34.118Z,24.01
2022-08-25T10:03:25.052Z,24.17
2022-08-25T10:06:13.349Z,24.18
2022-08-25T10:08:56.123Z,24.32
2022-08-25T10:11:48.284Z,24.35
2022-08-25T10:14:38.806Z,24.48
2022-08-25T10:17:16.873Z,24.51
2022-08-25T10:19:44.024Z,24.67
2022-08-25T10:22:24.296Z,24.75
2022-08-25T10:24:51.157Z,24.84
2022-08-25T10:27:28.700Z,24.95
2022-08-25T10:30:17.402Z,25.04
2022-08-25T10:33:17.604Z,25.03
2022-08-25T10:36:28.725Z,25.13
2022-08-25T10:39:01.602Z,25.22
2022-08-25T10:41:55.719Z,25.33
2022-08-25T10:45:12.374Z,25.39
2022-08-25T10:48:00.311Z,25.47
2022-08-25T10:50:59.008Z,25.50
2022-08-25T10:53:55.191Z,25.37
2022-08-25T10:56:28.819Z,25.45
2022-08-25T10:59:16.445Z,25.67
2022-08-25T11:01:56.811Z,25.76
2022-08-25T11:04:37.195Z,25.90
2022-08-25T11:07:16.581Z,26.09
2022-08-25T11:09:52.132Z,26.21
2022-08-25T11:12:34.854Z,26.26
2022-08-25T11:15:20.055Z,26.30
2022-08-25T11:17:57.021Z,26.34
2022-08-25T11:20:33.531Z,26.52
2022-08-25T11:23:41.620Z,26.63
2022-08-25T11:26:17.180Z,26.72
2022-08-25T11:29:21.756Z,26.82
2022-08-25T11:31:54.158Z,26.96
2022-08-25T11:34:22.571Z,27.09
2022-08-25T11:37:07.799Z,27.13
2022-08-25T11:39:51.915Z,27.17
2022-08-25T11:42:43.065Z,27.25
2022-08-25T11:45:39.862Z,27.26
2022-08-25T11:48:31.367Z,27.38
2022-08-25T11:51:33.757Z,27.45
2022-08-25T11:54:44.648Z,27.53
2022-08-25T11:57:25.699Z,27.75
2022-08-25T11:59:53.299Z,27.99
2022-08-25T12:02:51.133Z,28.07
2022-08-25T12:05:21.893Z,27.85
2022-08-25T12:07:48.839Z,27.92
2022-08-25T12:10:54.762Z,27.83
2022-08-25T12:13:45.631Z,27.75
2022-08-25T12:16:32.725Z,27.67
2022-08-25T12:19:47.410Z,27.54
2022-08-25T12:22:15.714Z,27.44
2022-08-25T12:24:47.190Z,27.37
2022-08-25T12:27:26.977Z,27.17
2022-08-25T12:30:16.129Z,27.10
2022-08-25T12:33:05.402Z,27.08
2022-08-25T12:35:37.499Z,27.09
2022-08-25T12:38:15.615Z,27.13
2022-08-25T12:40:42.958Z,27.14
2022-08-25T12:43:19.692Z,27.10
2022-08-25T12:45:48.291Z,26.87
2022-08-25T12:48:26.882Z,26.94
2022-08-25T12:51:05.187Z,26.92
2022-08-25T12:53:54.336Z,26.81
2022-08-25T12:56:28.854Z,26.83
2022-08-25T12:59:02.136Z,26.88
2022-08-25T13:01:59.953Z,27.03
2022-08-25T13:05:19.265Z,27.06
2022-08-25T13:08:24.805Z,26.92
2022-08-25T13:11:14.223Z,26.87
2022-08-25T13:14:17.915Z,26.88
2022-08-25T13:17:10.866Z,26.88
2022-08-25T13:19:38.291Z,26.98
2022-08-25T13:22:21.239Z,26.93
2022-08-25T13:24:50.784Z,26.89
2022-08-25T13:27:29.969Z,26.88
2022-08-25T13:29:59.769Z,26.88
2022-08-25T13:32:35.732Z,26.87
2022-08-25T13:35:21.013Z,26.82
2022-08-25T13:37:48.623Z,26.77
2022-08-25T13:40:33.598Z,26.79
2022-08-25T13:43:09.221Z,26.84
2022-08-25T13:45:45.917Z,26.86
2022-08-25T13:48:31.143Z,26.91
2022-08-25T13:51:31.384Z,26.81
2022-08-25T13:54:42.159Z,26.75
2022-08-25T13:57:22.231Z,26.73
2022-08-25T13:59:58.278Z,26.80
2022-08-25T14:02:49.941Z,26.93
2022-08-25T14:05:35.998Z,27.03
2022-08-25T14:08:16.236Z,27.15
2022-08-25T14:11:14.561Z,27.07
2022-08-25T14:13:45.267Z,27.10
2022-08-25T14:16:23.409Z,27.09
2022-08-25T14:18:58.824Z,27.13
2022-08-25T14:21:29.820Z,27.11
2022-08-25T14:23:57.450Z,27.03
2022-08-25T14:26:24.899Z,26.93
2022-08-25T14:28:53.402Z,26.96
2022-08-25T14:31:29.967Z,26.97
2022-08-25T14:34:13.485Z,26.97
2022-08-25T14:36:40.198Z,27.10
2022-08-25T14:39:08.913Z,27.21
2022-08-25T14:41:38.711Z,27.30
2022-08-25T14:44:05.799Z,27.32
2022-08-25T14:46:37.518Z,27.43
2022-08-25T14:49:09.956Z,27.50
2022-08-25T14:51:41.211Z,27.59
2022-08-25T14:54:14.856Z,27.68
2022-08-25T14:56:43.239Z,27.84
2022-08-25T14:59:10.019Z,27.94
2022-08-25T15:01:36.719Z,27.99
2022-08-25T15:04:13.006Z,28.02
2022-08-25T15:06:43.856Z,28.01
2022-08-25T15:09:16.277Z,27.89
2022-08-25T15:11:50.687Z,27.80
2022-08-25T15:14:28.569Z,27.73
2022-08-25T15:17:01.224Z,27.64
2022-08-25T15:19:28.706Z,27.67
2022-08-25T15:21:57.970Z,27.67
2022-08-25T15:24:28.562Z,27.64
2022-08-25T15:27:00.513Z,27.59
2022-08-25T15:29:31.595Z,27.61
2022-08-25T15:32:00.380Z,27.67
2022-08-25T15:34:28.022Z,27.67
2022-08-25T15:36:56.245Z,27.67
2022-08-25T15:39:22.750Z,27.61
2022-08-25T15:41:52.115Z,27.63
2022-08-25T15:44:19.137Z,27.61
2022-08-25T15:46:47.154Z,27.57
2022-08-25T15:49:23.633Z,27.48
2022-08-25T15:51:53.051Z,27.44
2022-08-25T15:54:22.914Z,27.42
2022-08-25T15:56:49.602Z,27.44
2022-08-25T15:59:16.641Z,27.45
2022-08-25T16:01:46.469Z,27.48
2022-08-25T16:04:14.321Z,27.48
2022-08-25T16:06:40.955Z,27.47
2022-08-25T16:09:08.182Z,27.48
2022-08-25T16:11:35.328Z,27.54
2022-08-25T16:14:05.979Z,27.58
2022-08-25T16:16:33.601Z,27.60
2022-08-25T16:19:01.362Z,27.63
2022-08-25T16:21:33.375Z,27.65
2022-08-25T16:24:07.749Z,27.70
2022-08-25T16:26:48.237Z,27.65
2022-08-25T16:29:15.583Z,27.69
2022-08-25T16:31:44.450Z,27.74
2022-08-25T16:34:11.222Z,27.75
2022-08-25T16:36:38.920Z,27.70
2022-08-25T16:39:09.848Z,27.67
2022-08-25T16:41:37.277Z,27.57
2022-08-25T16:44:11.086Z,27.48
2022-08-25T16:46:40.740Z,27.46
2022-08-25T16:49:10.310Z,27.44
2022-08-25T16:51:38.980Z,27.44
2022-08-25T16:54:27.756Z,27.41
2022-08-25T16:56:55.478Z,27.38
2022-08-25T16:59:23.547Z,27.36
2022-08-25T17:01:51.348Z,27.35
2022-08-25T17:04:18.091Z,27.30
2022-08-25T17:06:49.588Z,27.24
2022-08-25T17:09:23.968Z,27.19
2022-08-25T17:11:54.113Z,27.16
2022-08-25T17:14:21.732Z,27.14
2022-08-25T17:16:48.643Z,27.15
2022-08-25T17:19:18.978Z,27.10
2022-08-25T17:21:46.625Z,27.10
2022-08-25T17:24:14.194Z,27.08
2022-08-25T17:26:44.489Z,27.03
2022-08-25T17:29:11.863Z,26.97
2022-08-25T17:31:39.997Z,26.93
2022-08-25T17:34:16.168Z,26.84
2022-08-25T17:36:43.179Z,26.52
2022-08-25T17:39:14.066Z,26.60
2022-08-25T17:41:43.818Z,26.58
2022-08-25T17:44:10.990Z,26.52
2022-08-25T17:46:39.959Z,26.47
2022-08-25T17:49:11.771Z,26.37
2022-08-25T17:51:38.325Z,26.30
2022-08-25T17:54:05.163Z,26.24
2022-08-25T17:56:33.332Z,26.17
2022-08-25T17:58:59.881Z,26.08
2022-08-25T18:01:33.298Z,25.99
2022-08-25T18:04:00.930Z,25.90
2022-08-25T18:06:30.888Z,25.82
2022-08-25T18:08:59.895Z,25.71
2022-08-25T18:11:28.679Z,25.64
2022-08-25T18:13:56.083Z,25.57
2022-08-25T18:16:24.045Z,25.46
2022-08-25T18:18:53.554Z,25.37
2022-08-25T18:21:22.342Z,25.23
2022-08-25T18:23:49.604Z,25.13
2022-08-25T18:26:16.543Z,25.04
2022-08-25T18:28:43.896Z,24.92
2022-08-25T18:31:12.184Z,24.82
2022-08-25T18:33:44.372Z,24.75
2022-08-25T18:36:12.068Z,24.63
2022-08-25T18:38:58.394Z,24.51
2022-08-25T18:41:27.675Z,24.28
2022-08-25T18:43:54.387Z,24.18
2022-08-25T18:46:22.634Z,24.08
2022-08-25T18:48:52.757Z,23.99
2022-08-25T18:51:23.254Z,23.88
2022-08-25T18:53:54.470Z,23.80
2022-08-25T18:56:26.057Z,23.68
2022-08-25T18:58:52.709Z,23.56
2022-08-25T19:01:19.806Z,23.47
2022-08-25T19:03:46.625Z,23.41
2022-08-25T19:06:14.744Z,23.22
2022-08-25T19:08:42.179Z,23.12
2022-08-25T19:11:09.822Z,23.04
2022-08-25T19:13:37.519Z,22.99
2022-08-25T19:16:30.874Z,22.83
2022-08-25T19:18:57.591Z,22.79
2022-08-25T19:21:25.362Z,22.76
2022-08-25T19:23:52.997Z,22.68
2022-08-25T19:26:20.180Z,22.64
2022-08-25T19:28:49.417Z,22.62
2022-08-25T19:31:27.311Z,22.58
2022-08-25T19:33:56.001Z,22.52
2022-08-25T19:36:28.542Z,22.32
2022-08-25T19:38:58.548Z,22.19
2022-08-25T19:41:27.315Z,22.14
2022-08-25T19:43:57.267Z,22.04
2022-08-25T19:46:35.459Z,21.88
2022-08-25T19:49:27.165Z,21.76
2022-08-25T19:51:58.266Z,21.58
2022-08-25T19:54:33.204Z,21.35
2022-08-25T19:57:01.458Z,21.27
2022-08-25T19:59:40.648Z,21.26
2022-08-25T20:02:16.095Z,21.25
2022-08-25T20:04:52.161Z,21.25
2022-08-25T20:07:23.701Z,21.27
2022-08-25T20:09:52.989Z,21.34
2022-08-25T20:12:21.243Z,21.28
2022-08-25T20:14:50.320Z,21.25
2022-08-25T20:17:23.896Z,21.23
2022-08-25T20:19:55.717Z,21.11
2022-08-25T20:22:26.344Z,21.06
2022-08-25T20:24:57.968Z,21.01
2022-08-25T20:27:34.116Z,20.94
2022-08-25T20:30:02.627Z,20.82
2022-08-25T20:32:31.363Z,20.68
2022-08-25T20:34:57.990Z,20.58
2022-08-25T20:37:25.687Z,20.55
2022-08-25T20:39:52.700Z,20.55
2022-08-25T20:42:19.445Z,20.55
2022-08-25T20:44:46.979Z,20.43
2022-08-25T20:47:14.824Z,20.32
2022-08-25T20:49:45.163Z,20.37
2022-08-25T20:52:14.255Z,20.31
2022-08-25T20:54:43.959Z,20.19
2022-08-25T20:57:17.999Z,20.06
2022-08-25T20:59:44.610Z,19.88
2022-08-25T21:02:13.878Z,19.84
2022-08-25T21:04:48.907Z,19.78
2022-08-25T21:07:17.184Z,19.71
2022-08-25T21:09:43.725Z,19.68
2022-08-25T21:12:10.223Z,19.69
2022-08-25T21:14:41.300Z,19.66
2022-08-25T21:17:11.289Z,19.61
2022-08-25T21:19:39.831Z,19.57
2022-08-25T21:22:07.503Z,19.50
2022-08-25T21:24:34.486Z,19.46
2022-08-25T21:27:03.614Z,19.47
2022-08-25T21:29:32.549Z,19.50
2022-08-25T21:32:00.017Z,19.48
2022-08-25T21:34:28.262Z,19.43
2022-08-25T21:37:00.048Z,19.38
2022-08-25T21:39:29.461Z,19.38
2022-08-25T21:41:58.432Z,19.42
2022-08-25T21:44:26.681Z,19.33
2022-08-25T21:46:54.244Z,19.23
2022-08-25T21:49:22.067Z,19.08
2022-08-25T21:51:59.165Z,18.98
2022-08-25T21:54:28.751Z,18.99
2022-08-25T21:56:59.667Z,19.02
2022-08-25T21:59:36.182Z,18.96
2022-08-25T22:02:10.237Z,18.61
2022-08-25T22:04:39.341Z,18.55
2022-08-25T22:07:08.262Z,18.41
2022-08-25T22:09:35.883Z,18.37
2022-08-25T22:12:04.621Z,18.37
2022-08-25T22:14:32.332Z,18.40
2022-08-25T22:16:59.575Z,18.47
2022-08-25T22:19:27.145Z,18.55
2022-08-25T22:21:54.402Z,18.55
2022-08-25T22:24:21.543Z,18.45
2022-08-25T22:26:49.187Z,18.32
2022-08-25T22:29:23.257Z,18.23
2022-08-25T22:31:52.844Z,17.96
2022-08-25T22:34:19.594Z,18.11
2022-08-25T22:36:59.690Z,18.22
2022-08-25T22:39:26.925Z,18.20
2022-08-25T22:41:53.803Z,18.15
2022-08-25T22:44:20.410Z,18.03
2022-08-25T22:46:46.947Z,17.93
2022-08-25T22:49:14.023Z,17.90
2022-08-25T22:51:40.946Z,17.87
2022-08-25T22:54:09.674Z,17.78
2022-08-25T22:56:37.304Z,17.77
2022-08-25T22:59:10.953Z,17.75
2022-08-25T23:01:39.614Z,17.79
2022-08-25T23:04:07.047Z,17.90
2022-08-25T23:06:34.471Z,17.86
2022-08-25T23:09:03.738Z,17.77
2022-08-25T23:11:31.319Z,17.67
2022-08-25T23:14:05.517Z,17.58
2022-08-25T23:16:32.827Z,17.50
2022-08-25T23:19:00.382Z,17.44
2022-08-25T23:21:45.995Z,17.38
2022-08-25T23:24:29.502Z,17.25
2022-08-25T23:27:01.212Z,17.17
2022-08-25T23:29:30.935Z,17.15
2022-08-25T23:31:58.628Z,17.12
2022-08-25T23:34:26.497Z,17.08
2022-08-25T23:36:53.602Z,17.06
2022-08-25T23:39:21.639Z,17.15
2022-08-25T23:41:48.766Z,17.21
2022-08-25T23:44:17.307Z,17.29
2022-08-25T23:46:45.092Z,17.31
2022-08-25T23:49:12.358Z,17.27
2022-08-25T23:51:41.091Z,17.18
2022-08-25T23:54:11.601Z,17.16
2022-08-25T23:56:44.587Z,17.18
2022-08-25T23:59:18.191Z,17.18
